createdAt,value
2023-01-06T00:01:30.328Z,95.89
2023-01-06T00:04:00.199Z,95.96
2023-01-06T00:06:31.317Z,95.51
2023-01-06T00:09:02.779Z,95.78
2023-01-06T00:11:33.812Z,96.16
2023-01-06T00:14:03.014Z,96.56
2023-01-06T00:16:31.915Z,96.34
2023-01-06T00:19:01.771Z,96.16
2023-01-06T00:21:31.395Z,96.25
2023-01-06T00:24:04.097Z,96.13
2023-01-06T00:26:34.146Z,96.14
2023-01-06T00:29:02.869Z,95.94
2023-01-06T00:31:31.638Z,95.86
2023-01-06T00:34:00.385Z,95.94
2023-01-06T00:36:29.098Z,95.93
2023-01-06T00:38:57.971Z,95.43
2023-01-06T00:41:44.117Z,95.71
2023-01-06T00:44:14.195Z,96.07
2023-01-06T00:46:42.882Z,95.75
2023-01-06T00:49:11.555Z,96.24
2023-01-06T00:51:41.750Z,96.67
2023-01-06T00:54:13.079Z,96.53
2023-01-06T00:56:43.831Z,96.17
2023-01-06T00:59:17.698Z,95.56
2023-01-06T01:01:48.252Z,95.33
2023-01-06T01:04:18.542Z,95.08
2023-01-06T01:06:49.446Z,94.98
2023-01-06T01:09:22.788Z,94.69
2023-01-06T01:12:09.753Z,94.74
2023-01-06T01:14:47.543Z,93.48
2023-01-06T01:17:21.445Z,93.52
2023-01-06T01:19:52.440Z,93.94
2023-01-06T01:22:21.553Z,93.36
2023-01-06T01:24:50.343Z,93.57
2023-01-06T01:27:19.989Z,93.38
2023-01-06T01:29:50.125Z,93.07
2023-01-06T01:32:18.815Z,92.61
2023-01-06T01:34:47.514Z,92.83
2023-01-06T01:37:16.332Z,91.83
2023-01-06T01:39:45.011Z,92.17
2023-01-06T01:42:19.057Z,92.14
2023-01-06T01:45:03.229Z,92.56
2023-01-06T01:47:44.180Z,92.07
2023-01-06T01:50:28.463Z,92.06
2023-01-06T01:53:04.517Z,92.05
2023-01-06T01:55:35.156Z,92.21
2023-01-06T01:58:09.679Z,92.03
2023-01-06T02:00:42.415Z,91.45
2023-01-06T02:03:14.157Z,91.99
2023-01-06T02:05:48.767Z,91.58
2023-01-06T02:08:29.454Z,91.61
2023-01-06T02:10:58.564Z,92.31
2023-01-06T02:13:27.825Z,92.85
2023-01-06T02:16:11.541Z,92.35
2023-01-06T02:19:00.132Z,92.07
2023-01-06T02:21:56.781Z,91.91
2023-01-06T02:25:15.848Z,92.02
2023-01-06T02:28:25.772Z,92.10
2023-01-06T02:31:41.735Z,92.22
2023-01-06T02:34:24.714Z,92.70
2023-01-06T02:37:07.208Z,92.91
2023-01-06T02:39:50.685Z,93.19
2023-01-06T02:42:33.804Z,93.04
2023-01-06T02:45:12.133Z,93.45
2023-01-06T02:47:57.484Z,92.96
2023-01-06T02:50:40.527Z,93.05
2023-01-06T02:53:21.406Z,92.84
2023-01-06T02:55:54.817Z,92.99
2023-01-06T02:58:36.175Z,93.34
2023-01-06T03:01:18.061Z,93.79
2023-01-06T03:03:51.504Z,93.45
2023-01-06T03:06:29.220Z,93.42
2023-01-06T03:08:59.819Z,92.85
2023-01-06T03:11:34.574Z,93.66
2023-01-06T03:14:11.167Z,93.46
2023-01-06T03:16:40.572Z,93.68
2023-01-06T03:19:11.185Z,93.95
2023-01-06T03:21:45.735Z,93.49
2023-01-06T03:24:15.600Z,93.31
2023-01-06T03:26:48.616Z,93.42
2023-01-06T03:29:20.033Z,93.16
2023-01-06T03:32:02.739Z,93.13
2023-01-06T03:35:01.484Z,92.90
2023-01-06T03:37:43.144Z,93.28
2023-01-06T03:40:30.075Z,93.10
2023-01-06T03:43:16.255Z,92.42
2023-01-06T03:45:58.822Z,92.80
2023-01-06T03:48:54.397Z,92.78
2023-01-06T03:51:42.668Z,93.10
2023-01-06T03:54:33.624Z,93.16
2023-01-06T03:57:09.572Z,92.95
2023-01-06T03:59:44.554Z,92.94
2023-01-06T04:02:16.653Z,92.80
2023-01-06T04:04:45.621Z,92.72
2023-01-06T04:07:16.016Z,92.91
2023-01-06T04:09:44.934Z,92.62
2023-01-06T04:12:31.917Z,92.62
2023-01-06T04:15:00.767Z,92.41
2023-01-06T04:17:29.630Z,92.72
2023-01-06T04:19:58.450Z,92.60
2023-01-06T04:22:29.362Z,92.46
2023-01-06T04:24:59.068Z,92.55
2023-01-06T04:27:27.777Z,92.93
2023-01-06T04:29:56.724Z,92.44
2023-01-06T04:32:25.386Z,92.54
2023-01-06T04:34:54.592Z,92.53
2023-01-06T04:37:23.447Z,92.43
2023-01-06T04:39:53.557Z,92.20
2023-01-06T04:42:22.228Z,92.49
2023-01-06T04:44:50.963Z,92.49
2023-01-06T04:47:19.719Z,92.29
2023-01-06T04:49:50.450Z,92.20
2023-01-06T04:52:19.109Z,92.31
2023-01-06T04:54:47.768Z,92.68
2023-01-06T04:57:18.004Z,92.77
2023-01-06T04:59:47.852Z,92.68
2023-01-06T05:02:17.610Z,93.31
2023-01-06T05:04:48.081Z,93.18
2023-01-06T05:07:17.151Z,93.25
2023-01-06T05:09:45.977Z,93.31
2023-01-06T05:12:14.634Z,93.24
2023-01-06T05:14:47.083Z,93.65
2023-01-06T05:17:16.005Z,93.91
2023-01-06T05:19:45.550Z,93.70
2023-01-06T05:22:14.323Z,93.69
2023-01-06T05:24:43.701Z,93.49
2023-01-06T05:27:13.072Z,93.32
2023-01-06T05:29:42.027Z,93.57
2023-01-06T05:32:12.326Z,93.67
2023-01-06T05:34:41.322Z,94.15
2023-01-06T05:37:10.017Z,93.98
2023-01-06T05:39:38.783Z,93.81
2023-01-06T05:42:07.557Z,93.31
2023-01-06T05:44:38.145Z,93.81
2023-01-06T05:47:08.886Z,93.58
2023-01-06T05:49:39.022Z,93.66
2023-01-06T05:52:07.784Z,93.58
2023-01-06T05:54:36.811Z,93.64
2023-01-06T05:57:07.933Z,93.58
2023-01-06T05:59:36.644Z,94.24
2023-01-06T06:02:06.755Z,94.10
2023-01-06T06:04:35.582Z,93.73
2023-01-06T06:07:06.008Z,94.03
2023-01-06T06:09:34.803Z,94.63
2023-01-06T06:12:03.514Z,94.00
2023-01-06T06:14:32.310Z,93.75
2023-01-06T06:17:01.216Z,93.99
2023-01-06T06:19:29.895Z,93.80
2023-01-06T06:21:58.598Z,93.82
2023-01-06T06:24:28.786Z,94.25
2023-01-06T06:26:57.623Z,93.71
2023-01-06T06:29:26.321Z,94.20
2023-01-06T06:31:55.146Z,94.19
2023-01-06T06:34:23.970Z,94.56
2023-01-06T06:36:52.756Z,94.89
2023-01-06T06:39:22.170Z,95.00
2023-01-06T06:41:52.451Z,95.04
2023-01-06T06:44:21.312Z,94.84
2023-01-06T06:46:50.137Z,94.69
2023-01-06T06:49:18.892Z,94.70
2023-01-06T06:51:48.671Z,94.78
2023-01-06T06:54:17.603Z,95.10
2023-01-06T06:56:46.364Z,94.85
2023-01-06T06:59:16.501Z,94.98
2023-01-06T07:01:45.292Z,95.06
2023-01-06T07:04:14.283Z,95.15
2023-01-06T07:06:43.130Z,95.38
2023-01-06T07:09:11.852Z,95.18
2023-01-06T07:11:40.613Z,95.20
2023-01-06T07:14:09.333Z,95.38
2023-01-06T07:16:39.462Z,95.25
2023-01-06T07:19:10.560Z,95.42
2023-01-06T07:21:39.638Z,95.48
2023-01-06T07:24:09.066Z,95.97
2023-01-06T07:26:37.798Z,95.92
2023-01-06T07:29:06.522Z,95.83
2023-01-06T07:31:35.377Z,96.21
2023-01-06T07:34:05.598Z,96.02
2023-01-06T07:36:34.368Z,95.90
2023-01-06T07:39:03.601Z,96.11
2023-01-06T07:41:33.488Z,95.86
2023-01-06T07:44:02.763Z,96.11
2023-01-06T07:46:31.617Z,96.13
2023-01-06T07:49:00.533Z,96.28
2023-01-06T07:51:30.734Z,96.51
2023-01-06T07:53:59.654Z,96.63
2023-01-06T07:56:28.389Z,96.55
2023-01-06T07:58:57.117Z,96.48
2023-01-06T08:01:26.154Z,96.63
2023-01-06T08:03:54.977Z,96.66
2023-01-06T08:06:23.705Z,97.15
2023-01-06T08:08:53.929Z,96.98
2023-01-06T08:11:22.780Z,97.11
2023-01-06T08:13:51.630Z,97.47
2023-01-06T08:16:20.468Z,96.91
2023-01-06T08:18:49.288Z,97.06
2023-01-06T08:21:18.091Z,97.36
2023-01-06T08:23:46.971Z,97.99
2023-01-06T08:26:19.263Z,97.69
2023-01-06T08:28:48.461Z,97.56
2023-01-06T08:31:20.335Z,97.33
2023-01-06T08:33:50.347Z,97.18
2023-01-06T08:36:23.328Z,97.16
2023-01-06T08:38:52.210Z,97.13
2023-01-06T08:41:22.403Z,98.34
2023-01-06T08:43:52.492Z,98.45
2023-01-06T08:46:22.287Z,98.50
2023-01-06T08:48:51.213Z,98.87
2023-01-06T08:51:23.824Z,98.72
2023-01-06T08:53:53.468Z,98.62
2023-01-06T08:56:26.072Z,99.06
2023-01-06T08:58:57.396Z,99.38
2023-01-06T09:01:29.250Z,99.85
2023-01-06T09:04:01.297Z,99.99
2023-01-06T09:06:31.158Z,99.98
2023-01-06T09:09:01.308Z,100.00
2023-01-06T09:11:31.572Z,100.00
2023-01-06T09:14:00.489Z,100.00
2023-01-06T09:16:29.472Z,100.00
2023-01-06T09:18:58.298Z,100.00
2023-01-06T09:21:27.260Z,100.00
2023-01-06T09:23:55.966Z,100.00
2023-01-06T09:26:24.746Z,100.00
2023-01-06T09:28:54.911Z,100.00
2023-01-06T09:31:23.628Z,100.00
2023-01-06T09:33:52.350Z,100.00
2023-01-06T09:36:23.421Z,100.00
2023-01-06T09:38:52.382Z,100.00
2023-01-06T09:42:01.061Z,100.00
2023-01-06T09:44:33.700Z,100.00
2023-01-06T09:47:04.795Z,100.00
2023-01-06T09:49:47.703Z,100.00
2023-01-06T09:52:34.047Z,100.00
2023-01-06T09:55:08.057Z,100.00
2023-01-06T09:57:45.825Z,100.00
2023-01-06T10:00:35.137Z,100.00
2023-01-06T10:03:04.946Z,100.00
2023-01-06T10:05:49.727Z,100.00
2023-01-06T10:08:34.809Z,100.00
2023-01-06T10:11:14.371Z,100.00
2023-01-06T10:14:10.830Z,100.00
2023-01-06T10:16:59.158Z,100.00
2023-01-06T10:19:45.994Z,100.00
2023-01-06T10:22:29.272Z,100.00
2023-01-06T10:25:07.521Z,100.00
2023-01-06T10:27:41.457Z,100.00
2023-01-06T10:30:24.900Z,100.00
2023-01-06T10:32:56.408Z,100.00
2023-01-06T10:35:29.462Z,100.00
2023-01-06T10:38:04.484Z,100.00
2023-01-06T10:40:33.358Z,100.00
2023-01-06T10:43:06.882Z,100.00
2023-01-06T10:45:41.184Z,100.00
2023-01-06T10:48:15.536Z,100.00
2023-01-06T10:50:48.651Z,100.00
2023-01-06T10:53:18.445Z,100.00
2023-01-06T10:55:53.607Z,100.00
2023-01-06T10:58:34.423Z,100.00
2023-01-06T11:01:10.539Z,99.66
2023-01-06T11:03:42.838Z,99.28
2023-01-06T11:06:23.188Z,99.53
2023-01-06T11:08:52.097Z,99.08
2023-01-06T11:11:27.981Z,99.67
2023-01-06T11:14:00.884Z,97.90
2023-01-06T11:16:33.430Z,98.84
2023-01-06T11:19:07.799Z,99.58
2023-01-06T11:21:43.521Z,99.40
2023-01-06T11:24:20.298Z,99.24
2023-01-06T11:26:55.489Z,98.64
2023-01-06T11:29:31.899Z,98.76
2023-01-06T11:32:06.938Z,98.43
2023-01-06T11:34:37.167Z,97.06
2023-01-06T11:37:06.683Z,97.01
2023-01-06T11:39:39.461Z,96.76
2023-01-06T11:42:15.842Z,95.31
2023-01-06T11:44:45.303Z,94.68
2023-01-06T11:47:19.471Z,95.47
2023-01-06T11:49:54.346Z,95.12
2023-01-06T11:52:27.185Z,94.90
2023-01-06T11:55:03.570Z,95.72
2023-01-06T11:57:43.491Z,95.72
2023-01-06T12:00:38.509Z,94.07
2023-01-06T12:03:18.620Z,94.47
2023-01-06T12:05:59.092Z,94.39
2023-01-06T12:08:37.035Z,94.18
2023-01-06T12:11:14.295Z,94.07
2023-01-06T12:14:00.478Z,94.21
2023-01-06T12:16:41.894Z,92.92
2023-01-06T12:19:18.540Z,93.23
2023-01-06T12:21:48.631Z,93.60
2023-01-06T12:24:22.456Z,93.83
2023-01-06T12:26:52.974Z,93.99
2023-01-06T12:29:23.663Z,94.24
2023-01-06T12:32:09.778Z,93.31
2023-01-06T12:34:45.996Z,92.96
2023-01-06T12:37:28.204Z,92.77
2023-01-06T12:40:07.803Z,93.21
2023-01-06T12:42:47.849Z,94.14
2023-01-06T12:45:23.351Z,94.75
2023-01-06T12:47:55.659Z,94.69
2023-01-06T12:50:35.644Z,94.58
2023-01-06T12:53:21.044Z,94.38
2023-01-06T12:56:12.307Z,94.43
2023-01-06T12:58:56.455Z,93.82
2023-01-06T13:01:37.640Z,92.63
2023-01-06T13:04:45.275Z,91.44
2023-01-06T13:07:31.005Z,90.48
2023-01-06T13:10:17.069Z,91.11
2023-01-06T13:12:59.064Z,90.83
2023-01-06T13:15:31.131Z,90.32
2023-01-06T13:18:13.752Z,89.53
2023-01-06T13:20:48.565Z,89.27
2023-01-06T13:23:50.666Z,88.76
2023-01-06T13:26:44.598Z,87.10
2023-01-06T13:29:35.124Z,86.16
2023-01-06T13:32:27.993Z,86.25
2023-01-06T13:35:36.028Z,84.61
2023-01-06T13:38:30.821Z,85.07
2023-01-06T13:41:04.407Z,85.60
2023-01-06T13:43:47.240Z,85.28
2023-01-06T13:46:21.245Z,84.93
2023-01-06T13:48:55.472Z,84.40
2023-01-06T13:51:32.367Z,85.00
2023-01-06T13:54:03.229Z,85.08
2023-01-06T13:56:40.222Z,85.92
2023-01-06T13:59:25.993Z,85.67
2023-01-06T14:01:59.791Z,86.10
2023-01-06T14:04:49.513Z,86.28
2023-01-06T14:07:34.223Z,86.22
2023-01-06T14:10:05.570Z,86.94
2023-01-06T14:12:38.007Z,86.91
2023-01-06T14:15:22.518Z,86.71
2023-01-06T14:17:51.716Z,87.01
2023-01-06T14:20:31.189Z,86.63
2023-01-06T14:23:04.690Z,86.99
2023-01-06T14:25:40.935Z,87.52
2023-01-06T14:28:29.863Z,86.48
2023-01-06T15:37:48.976Z,85.52
2023-01-06T15:40:23.167Z,85.56
2023-01-06T15:42:52.034Z,83.82
2023-01-06T15:45:32.392Z,83.51
2023-01-06T15:48:11.568Z,82.63
2023-01-06T15:50:42.104Z,83.79
2023-01-06T15:53:24.755Z,83.74
2023-01-06T15:55:56.306Z,82.88
2023-01-06T15:58:28.857Z,82.86
2023-01-06T16:01:02.973Z,83.46
2023-01-06T16:03:34.006Z,83.11
2023-01-06T16:06:14.448Z,82.96
2023-01-06T16:08:44.327Z,83.10
2023-01-06T16:11:42.041Z,82.60
2023-01-06T16:14:28.862Z,82.75
2023-01-06T16:17:07.214Z,82.65
2023-01-06T16:19:45.564Z,83.26
2023-01-06T16:22:31.984Z,83.26
2023-01-06T16:25:04.390Z,83.41
2023-01-06T16:27:33.450Z,83.45
2023-01-06T16:30:23.409Z,83.62
2023-01-06T16:32:53.848Z,83.44
2023-01-06T16:35:25.803Z,83.44
2023-01-06T16:37:56.495Z,83.72
2023-01-06T16:40:28.579Z,84.18
2023-01-06T16:43:00.739Z,84.63
2023-01-06T16:45:38.286Z,84.38
2023-01-06T16:48:08.367Z,84.24
2023-01-06T16:50:44.902Z,84.21
2023-01-06T16:53:21.042Z,84.01
2023-01-06T16:55:54.380Z,83.82
2023-01-06T16:58:26.499Z,84.06
2023-01-06T17:00:58.430Z,84.49
2023-01-06T17:03:31.529Z,84.20
2023-01-06T17:06:00.957Z,84.62
2023-01-06T17:08:35.875Z,84.67
2023-01-06T17:11:16.640Z,85.68
2023-01-06T17:13:58.663Z,85.78
2023-01-06T17:16:32.258Z,86.01
2023-01-06T17:19:06.719Z,86.54
2023-01-06T17:21:37.940Z,85.85
2023-01-06T17:24:17.992Z,86.22
2023-01-06T17:26:52.847Z,86.48
2023-01-06T17:29:23.895Z,86.47
2023-01-06T17:31:57.133Z,86.94
2023-01-06T17:34:33.851Z,87.61
2023-01-06T17:37:12.141Z,87.33
2023-01-06T17:39:45.784Z,87.26
2023-01-06T17:42:30.740Z,86.66
2023-01-06T17:45:01.902Z,86.95
2023-01-06T17:47:43.128Z,86.23
2023-01-06T17:50:31.515Z,85.99
2023-01-06T17:53:33.973Z,86.48
2023-01-06T17:56:08.195Z,86.27
2023-01-06T17:58:40.481Z,85.61
2023-01-06T18:01:18.640Z,86.34
2023-01-06T18:03:48.923Z,86.04
2023-01-06T18:06:29.538Z,86.10
2023-01-06T18:09:12.526Z,85.74
2023-01-06T18:11:48.811Z,86.53
2023-01-06T18:14:29.128Z,86.23
2023-01-06T18:17:06.447Z,86.66
2023-01-06T18:19:38.740Z,86.25
2023-01-06T18:22:17.884Z,86.16
2023-01-06T18:24:48.790Z,86.27
2023-01-06T18:27:29.401Z,85.90
2023-01-06T18:30:17.508Z,86.27
2023-01-06T18:32:46.911Z,86.44
2023-01-06T18:35:20.546Z,86.41
2023-01-06T18:37:51.035Z,86.23
2023-01-06T18:40:24.782Z,86.36
2023-01-06T18:42:57.576Z,86.76
2023-01-06T18:45:29.269Z,86.78
2023-01-06T18:48:02.484Z,87.00
2023-01-06T18:50:37.771Z,86.94
2023-01-06T18:53:23.846Z,86.83
2023-01-06T18:55:55.284Z,86.81
2023-01-06T18:58:46.419Z,86.94
2023-01-06T19:01:23.176Z,86.66
2023-01-06T19:04:02.287Z,86.58
2023-01-06T19:06:48.388Z,86.32
2023-01-06T19:09:35.990Z,87.25
2023-01-06T19:12:26.017Z,86.89
2023-01-06T19:14:59.589Z,86.74
2023-01-06T19:17:34.428Z,87.33
2023-01-06T19:20:18.926Z,86.70
2023-01-06T19:22:49.541Z,86.57
2023-01-06T19:25:33.254Z,86.41
2023-01-06T19:28:06.216Z,86.27
2023-01-06T19:30:44.610Z,86.26
2023-01-06T19:33:36.761Z,85.87
2023-01-06T19:36:44.044Z,86.53
2023-01-06T19:39:31.652Z,86.01
2023-01-06T19:42:16.159Z,85.59
2023-01-06T19:44:45.844Z,85.98
2023-01-06T19:47:20.705Z,85.54
2023-01-06T19:50:04.970Z,85.42
2023-01-06T19:52:37.541Z,85.35
2023-01-06T19:55:33.407Z,85.44
2023-01-06T19:58:13.722Z,85.75
2023-01-06T20:00:49.253Z,85.94
2023-01-06T20:03:31.382Z,85.20
2023-01-06T20:06:00.315Z,85.36
2023-01-06T20:08:30.877Z,85.00
2023-01-06T20:11:00.394Z,85.31
2023-01-06T20:13:30.215Z,85.25
2023-01-06T20:15:59.564Z,85.04
2023-01-06T20:18:29.748Z,85.58
2023-01-06T20:21:00.408Z,85.88
2023-01-06T20:23:43.464Z,86.24
2023-01-06T20:26:12.186Z,86.02
2023-01-06T20:28:41.284Z,85.83
2023-01-06T20:31:10.032Z,85.79
2023-01-06T20:33:40.506Z,85.63
2023-01-06T20:36:09.686Z,85.58
2023-01-06T20:38:38.371Z,85.66
2023-01-06T20:41:07.278Z,85.70
2023-01-06T20:43:36.411Z,85.90
2023-01-06T20:46:05.719Z,86.25
2023-01-06T20:48:34.461Z,86.75
2023-01-06T20:51:05.334Z,86.59
2023-01-06T20:53:33.954Z,86.45
2023-01-06T20:56:02.617Z,86.35
2023-01-06T20:58:32.667Z,86.86
2023-01-06T21:01:02.019Z,86.94
2023-01-06T21:03:30.993Z,86.27
2023-01-06T21:05:59.816Z,86.65
2023-01-06T21:08:33.065Z,86.27
2023-01-06T21:11:01.734Z,86.36
2023-01-06T21:13:30.605Z,86.59
2023-01-06T21:15:59.234Z,86.68
2023-01-06T21:18:27.961Z,86.41
2023-01-06T21:20:57.078Z,86.50
2023-01-06T21:23:25.781Z,86.24
2023-01-06T21:25:56.832Z,86.45
2023-01-06T21:28:25.717Z,86.63
2023-01-06T21:30:54.559Z,86.62
2023-01-06T21:33:23.978Z,86.24
2023-01-06T21:35:52.924Z,86.52
2023-01-06T21:38:21.937Z,86.66
2023-01-06T21:40:51.730Z,86.72
2023-01-06T21:43:20.794Z,86.83
2023-01-06T21:45:49.523Z,86.60
2023-01-06T21:48:18.811Z,87.10
2023-01-06T21:50:47.622Z,86.55
2023-01-06T21:53:16.321Z,86.69
2023-01-06T21:55:45.106Z,86.65
2023-01-06T21:58:13.841Z,86.18
2023-01-06T22:00:44.199Z,86.96
2023-01-06T22:03:13.705Z,86.77
2023-01-06T22:05:43.477Z,87.13
2023-01-06T22:08:12.837Z,87.23
2023-01-06T22:10:44.719Z,86.93
2023-01-06T22:13:19.917Z,86.92
2023-01-06T22:15:50.985Z,87.19
2023-01-06T22:18:20.372Z,86.89
2023-01-06T22:20:49.151Z,86.88
2023-01-06T22:23:22.366Z,87.01
2023-01-06T22:25:51.494Z,86.80
2023-01-06T22:28:20.425Z,86.93
2023-01-06T22:30:51.617Z,87.30
2023-01-06T22:33:20.308Z,87.18
2023-01-06T22:35:48.958Z,86.65
2023-01-06T22:38:17.622Z,86.46
2023-01-06T22:40:47.760Z,86.97
2023-01-06T22:43:16.489Z,86.73
2023-01-06T22:45:51.683Z,86.91
2023-01-06T22:48:22.070Z,87.22
2023-01-06T22:50:58.428Z,86.87
2023-01-06T22:53:28.228Z,86.94
2023-01-06T22:56:01.909Z,86.94
2023-01-06T22:58:31.480Z,87.01
2023-01-06T23:01:00.135Z,86.90
2023-01-06T23:03:30.482Z,86.87
2023-01-06T23:06:00.927Z,86.88
2023-01-06T23:08:32.093Z,87.69
2023-01-06T23:11:03.688Z,87.86
2023-01-06T23:13:33.391Z,87.35
2023-01-06T23:16:04.438Z,87.45
2023-01-06T23:18:37.128Z,87.62
2023-01-06T23:21:09.797Z,87.75
2023-01-06T23:23:40.940Z,88.25
2023-01-06T23:26:13.625Z,88.01
2023-01-06T23:28:43.468Z,87.58
2023-01-06T23:31:14.913Z,87.27
2023-01-06T23:33:47.752Z,86.83
2023-01-06T23:36:19.390Z,88.69
2023-01-06T23:38:48.441Z,88.29
2023-01-06T23:41:19.739Z,87.95
2023-01-06T23:43:48.938Z,87.62
2023-01-06T23:46:20.955Z,88.42
2023-01-06T23:48:51.293Z,87.95
2023-01-06T23:51:20.434Z,88.33
2023-01-06T23:53:49.569Z,88.75
2023-01-06T23:56:21.107Z,88.85
2023-01-06T23:58:53.401Z,88.75
